sensor_id;sensor_type;location;lat;lon;timestamp;pressure;altitude;pressure_sealevel;temperature;humidity
20616;BME280;10467;42.338;23.552;2022-07-24T00:01:00;91182.50;;;20.44;46.81
20616;BME280;10467;42.338;23.552;2022-07-24T00:03:26;91179.97;;;20.55;46.31
20616;BME280;10467;42.338;23.552;2022-07-24T00:05:51;91179.19;;;20.54;46.23
20616;BME280;10467;42.338;23.552;2022-07-24T00:08:17;91168.28;;;20.47;46.29
20616;BME280;10467;42.338;23.552;2022-07-24T00:10:43;91173.69;;;20.47;46.18
20616;BME280;10467;42.338;23.552;2022-07-24T00:13:08;91183.84;;;20.54;46.18
20616;BME280;10467;42.338;23.552;2022-07-24T00:15:34;91177.28;;;20.55;46.04
20616;BME280;10467;42.338;23.552;2022-07-24T00:17:59;91176.34;;;20.70;45.56
20616;BME280;10467;42.338;23.552;2022-07-24T00:20:24;91185.25;;;20.71;45.66
20616;BME280;10467;42.338;23.552;2022-07-24T00:22:50;91182.78;;;20.62;46.20
20616;BME280;10467;42.338;23.552;2022-07-24T00:25:15;91187.84;;;20.41;46.78
20616;BME280;10467;42.338;23.552;2022-07-24T00:27:40;91176.03;;;20.26;46.99
20616;BME280;10467;42.338;23.552;2022-07-24T00:30:06;91178.84;;;20.10;47.49
20616;BME280;10467;42.338;23.552;2022-07-24T00:32:32;91176.97;;;19.91;47.90
20616;BME280;10467;42.338;23.552;2022-07-24T00:34:57;91178.50;;;19.89;47.98
20616;BME280;10467;42.338;23.552;2022-07-24T00:37:23;91173.19;;;19.73;48.40
20616;BME280;10467;42.338;23.552;2022-07-24T00:39:48;91177.66;;;19.65;48.75
20616;BME280;10467;42.338;23.552;2022-07-24T00:42:13;91178.31;;;19.59;48.82
20616;BME280;10467;42.338;23.552;2022-07-24T00:44:39;91178.16;;;19.52;49.18
20616;BME280;10467;42.338;23.552;2022-07-24T00:47:04;91185.25;;;19.40;49.51
20616;BME280;10467;42.338;23.552;2022-07-24T00:49:30;91175.94;;;19.38;49.60
20616;BME280;10467;42.338;23.552;2022-07-24T00:51:55;91178.66;;;19.38;49.70
20616;BME280;10467;42.338;23.552;2022-07-24T00:54:21;91172.56;;;19.41;49.69
20616;BME280;10467;42.338;23.552;2022-07-24T00:56:48;91170.91;;;19.36;49.64
20616;BME280;10467;42.338;23.552;2022-07-24T00:59:14;91172.06;;;19.35;49.76
20616;BME280;10467;42.338;23.552;2022-07-24T01:01:39;91171.22;;;19.31;49.71
20616;BME280;10467;42.338;23.552;2022-07-24T01:04:05;91167.09;;;19.18;50.18
20616;BME280;10467;42.338;23.552;2022-07-24T01:06:31;91171.56;;;19.10;50.36
20616;BME280;10467;42.338;23.552;2022-07-24T01:08:56;91175.06;;;19.11;50.60
20616;BME280;10467;42.338;23.552;2022-07-24T01:11:22;91171.56;;;19.10;50.22
20616;BME280;10467;42.338;23.552;2022-07-24T01:13:48;91163.81;;;19.09;50.55
20616;BME280;10467;42.338;23.552;2022-07-24T01:16:13;91174.88;;;19.04;50.64
20616;BME280;10467;42.338;23.552;2022-07-24T01:18:39;91165.78;;;18.93;51.17
20616;BME280;10467;42.338;23.552;2022-07-24T01:21:04;91173.75;;;18.85;51.58
20616;BME280;10467;42.338;23.552;2022-07-24T01:23:30;91175.28;;;18.67;52.26
20616;BME280;10467;42.338;23.552;2022-07-24T01:25:55;91169.28;;;18.42;52.86
20616;BME280;10467;42.338;23.552;2022-07-24T01:28:21;91162.34;;;18.25;53.32
20616;BME280;10467;42.338;23.552;2022-07-24T01:30:46;91168.97;;;18.12;53.66
20616;BME280;10467;42.338;23.552;2022-07-24T01:33:11;91167.66;;;18.06;54.15
20616;BME280;10467;42.338;23.552;2022-07-24T01:35:37;91165.25;;;18.01;54.08
20616;BME280;10467;42.338;23.552;2022-07-24T01:38:02;91172.19;;;18.02;54.37
20616;BME280;10467;42.338;23.552;2022-07-24T01:40:28;91164.19;;;17.90;54.67
20616;BME280;10467;42.338;23.552;2022-07-24T01:42:53;91169.66;;;17.93;54.81
20616;BME280;10467;42.338;23.552;2022-07-24T01:45:19;91164.00;;;17.83;55.03
20616;BME280;10467;42.338;23.552;2022-07-24T01:47:44;91165.59;;;17.84;55.03
20616;BME280;10467;42.338;23.552;2022-07-24T01:50:13;91162.00;;;17.80;55.36
20616;BME280;10467;42.338;23.552;2022-07-24T01:52:38;91158.03;;;17.74;55.40
20616;BME280;10467;42.338;23.552;2022-07-24T01:55:04;91156.03;;;17.71;55.73
20616;BME280;10467;42.338;23.552;2022-07-24T01:57:30;91148.63;;;17.67;56.00
20616;BME280;10467;42.338;23.552;2022-07-24T01:59:55;91151.84;;;17.73;55.71
20616;BME280;10467;42.338;23.552;2022-07-24T02:02:20;91142.47;;;17.83;55.37
20616;BME280;10467;42.338;23.552;2022-07-24T02:04:46;91143.53;;;17.94;54.95
20616;BME280;10467;42.338;23.552;2022-07-24T02:07:11;91149.53;;;18.03;54.80
20616;BME280;10467;42.338;23.552;2022-07-24T02:09:36;91146.56;;;18.08;54.40
20616;BME280;10467;42.338;23.552;2022-07-24T02:12:02;91148.97;;;18.13;54.63
20616;BME280;10467;42.338;23.552;2022-07-24T02:14:27;91145.59;;;18.16;54.57
20616;BME280;10467;42.338;23.552;2022-07-24T02:16:52;91137.19;;;18.18;54.44
20616;BME280;10467;42.338;23.552;2022-07-24T02:19:18;91142.22;;;18.19;54.18
20616;BME280;10467;42.338;23.552;2022-07-24T02:21:43;91148.03;;;18.21;54.50
20616;BME280;10467;42.338;23.552;2022-07-24T02:24:08;91144.19;;;18.22;54.06
20616;BME280;10467;42.338;23.552;2022-07-24T02:26:34;91140.44;;;18.27;53.77
20616;BME280;10467;42.338;23.552;2022-07-24T02:29:00;91142.91;;;18.32;53.63
20616;BME280;10467;42.338;23.552;2022-07-24T02:31:25;91145.66;;;18.36;53.76
20616;BME280;10467;42.338;23.552;2022-07-24T02:33:50;91135.56;;;18.48;53.47
20616;BME280;10467;42.338;23.552;2022-07-24T02:36:17;91149.81;;;18.49;53.17
20616;BME280;10467;42.338;23.552;2022-07-24T02:38:42;91140.53;;;18.46;53.16
20616;BME280;10467;42.338;23.552;2022-07-24T02:41:07;91142.97;;;18.36;53.60
20616;BME280;10467;42.338;23.552;2022-07-24T02:43:33;91143.16;;;18.27;53.86
20616;BME280;10467;42.338;23.552;2022-07-24T02:45:58;91142.56;;;18.18;54.03
20616;BME280;10467;42.338;23.552;2022-07-24T02:48:23;91138.41;;;18.05;54.37
20616;BME280;10467;42.338;23.552;2022-07-24T02:50:49;91140.13;;;17.97;55.17
20616;BME280;10467;42.338;23.552;2022-07-24T02:53:14;91139.19;;;17.89;55.23
20616;BME280;10467;42.338;23.552;2022-07-24T02:55:39;91135.38;;;17.75;55.60
20616;BME280;10467;42.338;23.552;2022-07-24T02:58:05;91134.59;;;17.74;55.50
20616;BME280;10467;42.338;23.552;2022-07-24T03:00:30;91132.03;;;17.65;55.79
20616;BME280;10467;42.338;23.552;2022-07-24T03:02:55;91136.88;;;17.60;56.24
20616;BME280;10467;42.338;23.552;2022-07-24T03:05:21;91136.38;;;17.54;56.30
20616;BME280;10467;42.338;23.552;2022-07-24T03:07:46;91137.50;;;17.53;56.49
20616;BME280;10467;42.338;23.552;2022-07-24T03:10:12;91127.88;;;17.52;56.50
20616;BME280;10467;42.338;23.552;2022-07-24T03:12:38;91126.47;;;17.58;56.58
20616;BME280;10467;42.338;23.552;2022-07-24T03:15:03;91128.03;;;17.59;56.38
20616;BME280;10467;42.338;23.552;2022-07-24T03:17:29;91126.63;;;17.65;56.25
20616;BME280;10467;42.338;23.552;2022-07-24T03:19:54;91122.19;;;17.70;56.00
20616;BME280;10467;42.338;23.552;2022-07-24T03:22:19;91120.00;;;17.75;56.17
20616;BME280;10467;42.338;23.552;2022-07-24T03:24:45;91126.31;;;17.83;55.88
20616;BME280;10467;42.338;23.552;2022-07-24T03:27:10;91121.41;;;17.85;55.76
20616;BME280;10467;42.338;23.552;2022-07-24T03:29:35;91119.84;;;17.84;56.25
20616;BME280;10467;42.338;23.552;2022-07-24T03:32:01;91122.53;;;17.84;56.05
20616;BME280;10467;42.338;23.552;2022-07-24T03:34:26;91119.56;;;17.89;56.05
20616;BME280;10467;42.338;23.552;2022-07-24T03:36:52;91117.03;;;17.96;55.90
20616;BME280;10467;42.338;23.552;2022-07-24T03:39:17;91122.06;;;17.98;55.99
20616;BME280;10467;42.338;23.552;2022-07-24T03:41:43;91127.56;;;18.01;55.88
20616;BME280;10467;42.338;23.552;2022-07-24T03:44:08;91124.59;;;18.06;55.90
20616;BME280;10467;42.338;23.552;2022-07-24T03:46:33;91123.19;;;18.12;55.95
20616;BME280;10467;42.338;23.552;2022-07-24T03:48:59;91137.34;;;18.09;56.37
20616;BME280;10467;42.338;23.552;2022-07-24T03:51:24;91128.41;;;18.05;56.91
20616;BME280;10467;42.338;23.552;2022-07-24T03:53:50;91126.50;;;17.90;57.86
20616;BME280;10467;42.338;23.552;2022-07-24T03:56:15;91127.72;;;17.92;58.03
20616;BME280;10467;42.338;23.552;2022-07-24T03:58:41;91128.06;;;17.91;58.46
20616;BME280;10467;42.338;23.552;2022-07-24T04:01:06;91121.91;;;17.90;58.32
20616;BME280;10467;42.338;23.552;2022-07-24T04:03:32;91137.44;;;17.97;58.24
20616;BME280;10467;42.338;23.552;2022-07-24T04:05:59;91132.66;;;18.06;58.23
20616;BME280;10467;42.338;23.552;2022-07-24T04:08:24;91133.88;;;18.09;58.50
20616;BME280;10467;42.338;23.552;2022-07-24T04:10:50;91128.31;;;18.17;58.61
20616;BME280;10467;42.338;23.552;2022-07-24T04:13:21;91132.81;;;18.29;57.91
20616;BME280;10467;42.338;23.552;2022-07-24T04:15:46;91126.81;;;18.36;57.73
20616;BME280;10467;42.338;23.552;2022-07-24T04:18:12;91124.69;;;18.45;57.78
20616;BME280;10467;42.338;23.552;2022-07-24T04:20:37;91134.06;;;18.51;58.01
20616;BME280;10467;42.338;23.552;2022-07-24T04:23:02;91129.38;;;18.64;57.97
20616;BME280;10467;42.338;23.552;2022-07-24T04:25:27;91137.69;;;18.74;58.17
20616;BME280;10467;42.338;23.552;2022-07-24T04:27:53;91127.00;;;18.78;57.77
20616;BME280;10467;42.338;23.552;2022-07-24T04:30:18;91128.41;;;18.91;58.22
20616;BME280;10467;42.338;23.552;2022-07-24T04:32:43;91129.75;;;19.01;57.36
20616;BME280;10467;42.338;23.552;2022-07-24T04:35:09;91126.06;;;19.09;57.73
20616;BME280;10467;42.338;23.552;2022-07-24T04:37:34;91123.28;;;19.25;56.76
20616;BME280;10467;42.338;23.552;2022-07-24T04:39:59;91131.03;;;19.26;58.12
20616;BME280;10467;42.338;23.552;2022-07-24T04:42:25;91128.88;;;19.35;57.81
20616;BME280;10467;42.338;23.552;2022-07-24T04:44:50;91135.13;;;19.39;57.49
20616;BME280;10467;42.338;23.552;2022-07-24T04:47:16;91135.22;;;19.43;57.47
20616;BME280;10467;42.338;23.552;2022-07-24T04:49:41;91130.69;;;19.70;56.47
20616;BME280;10467;42.338;23.552;2022-07-24T04:52:06;91124.16;;;19.71;56.09
20616;BME280;10467;42.338;23.552;2022-07-24T04:54:32;91138.22;;;19.80;56.01
20616;BME280;10467;42.338;23.552;2022-07-24T04:56:57;91128.66;;;19.86;56.28
20616;BME280;10467;42.338;23.552;2022-07-24T04:59:23;91128.34;;;20.14;55.71
20616;BME280;10467;42.338;23.552;2022-07-24T05:01:48;91129.97;;;20.42;55.95
20616;BME280;10467;42.338;23.552;2022-07-24T05:04:13;91132.19;;;20.62;55.00
20616;BME280;10467;42.338;23.552;2022-07-24T05:06:39;91131.41;;;20.88;53.76
20616;BME280;10467;42.338;23.552;2022-07-24T05:09:04;91132.16;;;21.15;53.29
20616;BME280;10467;42.338;23.552;2022-07-24T05:11:30;91128.69;;;21.18;52.97
20616;BME280;10467;42.338;23.552;2022-07-24T05:13:55;91131.34;;;21.45;52.15
20616;BME280;10467;42.338;23.552;2022-07-24T05:16:20;91127.72;;;21.67;51.95
20616;BME280;10467;42.338;23.552;2022-07-24T05:18:46;91121.34;;;21.90;50.47
20616;BME280;10467;42.338;23.552;2022-07-24T05:21:11;91120.25;;;22.38;49.77
20616;BME280;10467;42.338;23.552;2022-07-24T05:23:36;91120.53;;;22.81;49.16
20616;BME280;10467;42.338;23.552;2022-07-24T05:26:02;91119.56;;;23.14;48.83
20616;BME280;10467;42.338;23.552;2022-07-24T05:28:27;91114.31;;;23.53;48.73
20616;BME280;10467;42.338;23.552;2022-07-24T05:30:52;91116.38;;;24.03;47.56
20616;BME280;10467;42.338;23.552;2022-07-24T05:33:17;91122.25;;;24.55;46.93
20616;BME280;10467;42.338;23.552;2022-07-24T05:35:43;91122.03;;;25.58;45.41
20616;BME280;10467;42.338;23.552;2022-07-24T05:38:08;91116.53;;;27.62;41.54
20616;BME280;10467;42.338;23.552;2022-07-24T05:40:33;91116.78;;;29.29;39.07
20616;BME280;10467;42.338;23.552;2022-07-24T05:42:59;91119.69;;;29.81;37.96
20616;BME280;10467;42.338;23.552;2022-07-24T05:45:24;91110.09;;;30.82;36.78
20616;BME280;10467;42.338;23.552;2022-07-24T05:47:50;91117.00;;;30.54;36.65
20616;BME280;10467;42.338;23.552;2022-07-24T05:50:15;91107.66;;;28.92;39.03
20616;BME280;10467;42.338;23.552;2022-07-24T05:52:40;91109.72;;;30.96;35.97
20616;BME280;10467;42.338;23.552;2022-07-24T05:55:06;91116.19;;;31.80;35.22
20616;BME280;10467;42.338;23.552;2022-07-24T05:57:32;91107.00;;;31.99;34.68
20616;BME280;10467;42.338;23.552;2022-07-24T05:59:57;91106.09;;;32.82;33.78
20616;BME280;10467;42.338;23.552;2022-07-24T06:02:23;91115.78;;;34.47;32.69
20616;BME280;10467;42.338;23.552;2022-07-24T06:04:48;91115.97;;;36.94;29.67
20616;BME280;10467;42.338;23.552;2022-07-24T06:07:13;91112.25;;;38.46;27.93
20616;BME280;10467;42.338;23.552;2022-07-24T06:09:39;91119.63;;;38.93;27.54
20616;BME280;10467;42.338;23.552;2022-07-24T06:12:04;91118.47;;;39.91;26.85
20616;BME280;10467;42.338;23.552;2022-07-24T06:14:30;91110.16;;;41.20;26.15
20616;BME280;10467;42.338;23.552;2022-07-24T06:16:56;91116.47;;;42.01;25.62
20616;BME280;10467;42.338;23.552;2022-07-24T06:19:21;91119.00;;;41.50;25.97
20616;BME280;10467;42.338;23.552;2022-07-24T06:21:46;91115.31;;;41.70;25.55
20616;BME280;10467;42.338;23.552;2022-07-24T06:24:12;91114.63;;;41.86;26.28
20616;BME280;10467;42.338;23.552;2022-07-24T06:26:37;91119.00;;;41.99;26.02
20616;BME280;10467;42.338;23.552;2022-07-24T06:29:02;91116.31;;;42.27;26.14
20616;BME280;10467;42.338;23.552;2022-07-24T06:31:28;91125.06;;;43.69;24.76
20616;BME280;10467;42.338;23.552;2022-07-24T06:33:53;91121.72;;;43.92;24.13
20616;BME280;10467;42.338;23.552;2022-07-24T06:36:18;91122.91;;;44.19;23.98
20616;BME280;10467;42.338;23.552;2022-07-24T06:38:44;91124.72;;;44.11;23.87
20616;BME280;10467;42.338;23.552;2022-07-24T06:41:09;91113.66;;;43.44;24.09
20616;BME280;10467;42.338;23.552;2022-07-24T06:43:34;91117.75;;;41.51;25.90
20616;BME280;10467;42.338;23.552;2022-07-24T06:46:00;91112.13;;;43.21;24.82
20616;BME280;10467;42.338;23.552;2022-07-24T06:48:25;91115.13;;;43.68;24.56
20616;BME280;10467;42.338;23.552;2022-07-24T06:50:50;91109.81;;;42.74;25.54
20616;BME280;10467;42.338;23.552;2022-07-24T06:53:16;91114.31;;;44.59;23.99
20616;BME280;10467;42.338;23.552;2022-07-24T06:55:41;91120.09;;;44.72;23.49
20616;BME280;10467;42.338;23.552;2022-07-24T06:58:07;91118.44;;;44.52;23.16
20616;BME280;10467;42.338;23.552;2022-07-24T07:00:32;91120.47;;;44.93;23.17
20616;BME280;10467;42.338;23.552;2022-07-24T07:02:57;91121.19;;;45.59;22.58
20616;BME280;10467;42.338;23.552;2022-07-24T07:05:23;91113.72;;;46.16;22.74
20616;BME280;10467;42.338;23.552;2022-07-24T07:07:49;91120.28;;;44.79;22.99
20616;BME280;10467;42.338;23.552;2022-07-24T07:10:14;91107.00;;;42.74;25.73
20616;BME280;10467;42.338;23.552;2022-07-24T07:12:39;91107.06;;;41.98;25.00
20616;BME280;10467;42.338;23.552;2022-07-24T07:15:05;91108.94;;;42.29;25.10
20616;BME280;10467;42.338;23.552;2022-07-24T07:17:30;91114.47;;;44.72;22.47
20616;BME280;10467;42.338;23.552;2022-07-24T07:19:56;91119.72;;;46.07;22.44
20616;BME280;10467;42.338;23.552;2022-07-24T07:22:21;91112.41;;;46.60;21.64
20616;BME280;10467;42.338;23.552;2022-07-24T07:24:46;91117.50;;;46.62;21.20
20616;BME280;10467;42.338;23.552;2022-07-24T07:27:12;91114.13;;;47.01;20.61
20616;BME280;10467;42.338;23.552;2022-07-24T07:29:37;91107.84;;;47.59;21.39
20616;BME280;10467;42.338;23.552;2022-07-24T07:32:02;91107.81;;;48.30;19.75
20616;BME280;10467;42.338;23.552;2022-07-24T07:34:28;91108.19;;;47.23;20.61
20616;BME280;10467;42.338;23.552;2022-07-24T07:36:53;91111.78;;;47.95;20.16
20616;BME280;10467;42.338;23.552;2022-07-24T07:39:18;91105.16;;;47.66;19.90
20616;BME280;10467;42.338;23.552;2022-07-24T07:41:44;91108.25;;;47.18;19.97
20616;BME280;10467;42.338;23.552;2022-07-24T07:44:09;91103.63;;;46.26;20.16
20616;BME280;10467;42.338;23.552;2022-07-24T07:46:34;91107.19;;;44.46;22.03
20616;BME280;10467;42.338;23.552;2022-07-24T07:49:00;91102.13;;;46.25;19.50
20616;BME280;10467;42.338;23.552;2022-07-24T07:51:25;91107.50;;;46.98;19.09
20616;BME280;10467;42.338;23.552;2022-07-24T07:53:51;91105.06;;;45.89;21.22
20616;BME280;10467;42.338;23.552;2022-07-24T07:56:16;91106.69;;;46.28;19.41
20616;BME280;10467;42.338;23.552;2022-07-24T07:58:41;91102.47;;;45.91;20.17
20616;BME280;10467;42.338;23.552;2022-07-24T08:01:07;91104.31;;;47.98;19.22
20616;BME280;10467;42.338;23.552;2022-07-24T08:03:32;91107.25;;;48.93;18.19
20616;BME280;10467;42.338;23.552;2022-07-24T08:05:59;91100.41;;;49.43;18.42
20616;BME280;10467;42.338;23.552;2022-07-24T08:08:24;91104.41;;;48.93;18.52
20616;BME280;10467;42.338;23.552;2022-07-24T08:10:50;91104.53;;;49.63;17.93
20616;BME280;10467;42.338;23.552;2022-07-24T08:13:15;91103.03;;;46.52;20.13
20616;BME280;10467;42.338;23.552;2022-07-24T08:15:42;91103.13;;;47.35;19.40
20616;BME280;10467;42.338;23.552;2022-07-24T08:18:08;91098.91;;;49.08;19.43
20616;BME280;10467;42.338;23.552;2022-07-24T08:20:33;91098.63;;;47.71;18.47
20616;BME280;10467;42.338;23.552;2022-07-24T08:22:59;91099.75;;;48.35;17.91
20616;BME280;10467;42.338;23.552;2022-07-24T08:25:25;91099.06;;;48.68;17.41
20616;BME280;10467;42.338;23.552;2022-07-24T08:27:50;91100.63;;;48.29;17.82
20616;BME280;10467;42.338;23.552;2022-07-24T08:30:16;91092.25;;;49.60;16.97
20616;BME280;10467;42.338;23.552;2022-07-24T08:32:41;91099.97;;;51.48;16.07
20616;BME280;10467;42.338;23.552;2022-07-24T08:35:08;91089.44;;;50.82;17.04
20616;BME280;10467;42.338;23.552;2022-07-24T08:37:38;91095.81;;;50.75;16.98
20616;BME280;10467;42.338;23.552;2022-07-24T08:40:04;91091.59;;;50.24;16.31
20616;BME280;10467;42.338;23.552;2022-07-24T08:42:29;91096.78;;;48.67;17.96
20616;BME280;10467;42.338;23.552;2022-07-24T08:44:55;91091.88;;;49.85;17.17
20616;BME280;10467;42.338;23.552;2022-07-24T08:47:20;91088.84;;;48.65;17.22
20616;BME280;10467;42.338;23.552;2022-07-24T08:49:46;91090.59;;;49.23;17.12
20616;BME280;10467;42.338;23.552;2022-07-24T08:52:12;91081.16;;;47.14;17.84
20616;BME280;10467;42.338;23.552;2022-07-24T08:54:39;91085.50;;;45.54;18.61
20616;BME280;10467;42.338;23.552;2022-07-24T09:05:32;91082.72;;;48.27;17.28
20616;BME280;10467;42.338;23.552;2022-07-24T09:08:10;91081.75;;;45.46;19.42
20616;BME280;10467;42.338;23.552;2022-07-24T09:10:36;91080.56;;;42.64;20.86
20616;BME280;10467;42.338;23.552;2022-07-24T09:13:15;91076.22;;;41.81;21.40
20616;BME280;10467;42.338;23.552;2022-07-24T09:15:48;91071.19;;;39.76;23.07
20616;BME280;10467;42.338;23.552;2022-07-24T09:18:31;91083.38;;;41.40;21.56
20616;BME280;10467;42.338;23.552;2022-07-24T09:20:58;91073.47;;;41.02;21.98
20616;BME280;10467;42.338;23.552;2022-07-24T09:23:25;91079.34;;;41.46;22.02
20616;BME280;10467;42.338;23.552;2022-07-24T09:25:52;91077.47;;;42.45;21.53
20616;BME280;10467;42.338;23.552;2022-07-24T09:28:18;91085.31;;;42.30;21.35
20616;BME280;10467;42.338;23.552;2022-07-24T09:30:45;91077.38;;;40.52;22.08
20616;BME280;10467;42.338;23.552;2022-07-24T09:35:40;91082.16;;;39.24;23.38
20616;BME280;10467;42.338;23.552;2022-07-24T09:38:12;91091.97;;;39.95;22.83
20616;BME280;10467;42.338;23.552;2022-07-24T09:40:52;91083.06;;;40.95;21.95
20616;BME280;10467;42.338;23.552;2022-07-24T09:43:28;91095.03;;;38.72;23.53
20616;BME280;10467;42.338;23.552;2022-07-24T09:46:04;91091.38;;;38.21;24.25
20616;BME280;10467;42.338;23.552;2022-07-24T09:48:34;91087.84;;;37.82;24.39
20616;BME280;10467;42.338;23.552;2022-07-24T09:53:31;91088.06;;;38.97;24.83
20616;BME280;10467;42.338;23.552;2022-07-24T09:55:59;91081.06;;;37.59;25.79
20616;BME280;10467;42.338;23.552;2022-07-24T09:58:26;91074.28;;;39.58;25.08
20616;BME280;10467;42.338;23.552;2022-07-24T10:00:56;91080.69;;;38.05;26.21
20616;BME280;10467;42.338;23.552;2022-07-24T10:03:25;91086.47;;;38.90;25.10
20616;BME280;10467;42.338;23.552;2022-07-24T10:05:58;91078.41;;;40.29;24.85
20616;BME280;10467;42.338;23.552;2022-07-24T10:08:25;91067.16;;;41.49;23.60
20616;BME280;10467;42.338;23.552;2022-07-24T10:10:51;91085.66;;;42.88;22.70
20616;BME280;10467;42.338;23.552;2022-07-24T10:13:17;91075.78;;;44.95;21.35
20616;BME280;10467;42.338;23.552;2022-07-24T10:18:29;91079.78;;;45.65;20.98
20616;BME280;10467;42.338;23.552;2022-07-24T10:21:06;91062.75;;;42.73;22.38
20616;BME280;10467;42.338;23.552;2022-07-24T10:23:52;91071.13;;;40.37;23.53
20616;BME280;10467;42.338;23.552;2022-07-24T10:26:34;91088.69;;;38.56;25.35
20616;BME280;10467;42.338;23.552;2022-07-24T10:31:32;91068.94;;;36.57;27.34
20616;BME280;10467;42.338;23.552;2022-07-24T10:34:01;91076.22;;;36.27;28.30
20616;BME280;10467;42.338;23.552;2022-07-24T10:36:31;91074.00;;;35.62;28.48
20616;BME280;10467;42.338;23.552;2022-07-24T10:39:05;91069.59;;;34.88;29.66
20616;BME280;10467;42.338;23.552;2022-07-24T10:41:34;91085.06;;;34.45;30.19
20616;BME280;10467;42.338;23.552;2022-07-24T10:44:17;91074.59;;;34.40;30.15
20616;BME280;10467;42.338;23.552;2022-07-24T10:47:00;91073.91;;;34.58;29.53
20616;BME280;10467;42.338;23.552;2022-07-24T10:52:03;91074.88;;;35.31;27.26
20616;BME280;10467;42.338;23.552;2022-07-24T10:54:29;91075.06;;;35.74;28.00
20616;BME280;10467;42.338;23.552;2022-07-24T10:56:54;91077.34;;;35.20;26.91
20616;BME280;10467;42.338;23.552;2022-07-24T10:59:36;91062.28;;;35.21;26.51
20616;BME280;10467;42.338;23.552;2022-07-24T11:02:25;91061.38;;;35.42;27.84
20616;BME280;10467;42.338;23.552;2022-07-24T11:05:37;91064.78;;;37.19;26.28
20616;BME280;10467;42.338;23.552;2022-07-24T11:08:12;91069.84;;;38.95;24.91
20616;BME280;10467;42.338;23.552;2022-07-24T11:10:49;91063.31;;;41.36;21.84
20616;BME280;10467;42.338;23.552;2022-07-24T11:21:07;91064.44;;;40.55;22.47
20616;BME280;10467;42.338;23.552;2022-07-24T11:23:33;91057.28;;;41.11;21.12
20616;BME280;10467;42.338;23.552;2022-07-24T11:29:33;91056.19;;;42.93;20.99
20616;BME280;10467;42.338;23.552;2022-07-24T11:34:34;91050.53;;;42.54;21.24
20616;BME280;10467;42.338;23.552;2022-07-24T11:37:00;91051.97;;;40.76;21.68
20616;BME280;10467;42.338;23.552;2022-07-24T11:39:34;91048.84;;;38.94;23.96
20616;BME280;10467;42.338;23.552;2022-07-24T11:42:02;91042.69;;;38.41;24.42
20616;BME280;10467;42.338;23.552;2022-07-24T11:44:30;91043.75;;;38.28;24.92
20616;BME280;10467;42.338;23.552;2022-07-24T11:46:57;91038.25;;;38.04;24.87
20616;BME280;10467;42.338;23.552;2022-07-24T11:49:24;91035.41;;;39.28;24.14
20616;BME280;10467;42.338;23.552;2022-07-24T11:51:52;91036.56;;;42.54;21.62
20616;BME280;10467;42.338;23.552;2022-07-24T11:54:26;91039.34;;;42.65;21.04
20616;BME280;10467;42.338;23.552;2022-07-24T11:56:54;91034.25;;;42.46;20.33
20616;BME280;10467;42.338;23.552;2022-07-24T12:01:50;91029.03;;;40.92;22.13
20616;BME280;10467;42.338;23.552;2022-07-24T12:04:22;91021.56;;;40.47;22.30
20616;BME280;10467;42.338;23.552;2022-07-24T12:06:47;91027.75;;;41.84;21.72
20616;BME280;10467;42.338;23.552;2022-07-24T12:09:13;91026.91;;;42.66;21.01
20616;BME280;10467;42.338;23.552;2022-07-24T12:11:39;91010.88;;;42.50;21.11
20616;BME280;10467;42.338;23.552;2022-07-24T12:14:12;91018.75;;;42.90;20.17
20616;BME280;10467;42.338;23.552;2022-07-24T12:16:38;91012.66;;;43.89;21.66
20616;BME280;10467;42.338;23.552;2022-07-24T12:19:20;91013.63;;;43.11;20.63
20616;BME280;10467;42.338;23.552;2022-07-24T12:21:46;91013.22;;;43.65;20.62
20616;BME280;10467;42.338;23.552;2022-07-24T12:24:12;91011.59;;;43.17;20.71
20616;BME280;10467;42.338;23.552;2022-07-24T12:26:55;91013.72;;;41.68;22.04
20616;BME280;10467;42.338;23.552;2022-07-24T12:29:22;91003.50;;;39.90;23.34
20616;BME280;10467;42.338;23.552;2022-07-24T12:31:49;91016.22;;;38.30;23.22
20616;BME280;10467;42.338;23.552;2022-07-24T12:34:15;91009.47;;;37.39;24.61
20616;BME280;10467;42.338;23.552;2022-07-24T12:36:41;91006.13;;;36.54;25.80
20616;BME280;10467;42.338;23.552;2022-07-24T12:39:07;91005.84;;;37.09;25.20
20616;BME280;10467;42.338;23.552;2022-07-24T12:41:43;91006.78;;;39.07;23.31
20616;BME280;10467;42.338;23.552;2022-07-24T12:44:09;91001.53;;;38.15;24.93
20616;BME280;10467;42.338;23.552;2022-07-24T12:46:36;90997.38;;;37.66;26.31
20616;BME280;10467;42.338;23.552;2022-07-24T12:49:13;90991.44;;;35.60;26.09
20616;BME280;10467;42.338;23.552;2022-07-24T12:51:46;90991.53;;;35.93;26.65
20616;BME280;10467;42.338;23.552;2022-07-24T12:54:25;90986.22;;;35.53;27.63
20616;BME280;10467;42.338;23.552;2022-07-24T12:56:52;91000.50;;;35.06;28.22
20616;BME280;10467;42.338;23.552;2022-07-24T13:01:54;90989.72;;;35.17;27.48
20616;BME280;10467;42.338;23.552;2022-07-24T13:04:22;90988.53;;;35.46;28.78
20616;BME280;10467;42.338;23.552;2022-07-24T13:07:00;90986.94;;;35.90;28.14
20616;BME280;10467;42.338;23.552;2022-07-24T13:09:28;90986.81;;;35.85;27.60
20616;BME280;10467;42.338;23.552;2022-07-24T13:11:55;90981.88;;;35.16;29.24
20616;BME280;10467;42.338;23.552;2022-07-24T13:14:22;90982.66;;;34.89;28.79
20616;BME280;10467;42.338;23.552;2022-07-24T13:16:50;90988.06;;;34.52;28.66
20616;BME280;10467;42.338;23.552;2022-07-24T13:19:17;90986.06;;;34.52;29.46
20616;BME280;10467;42.338;23.552;2022-07-24T13:21:44;90984.66;;;34.39;29.71
20616;BME280;10467;42.338;23.552;2022-07-24T13:24:12;90981.44;;;34.00;28.92
20616;BME280;10467;42.338;23.552;2022-07-24T13:26:38;90974.38;;;33.99;28.93
20616;BME280;10467;42.338;23.552;2022-07-24T13:29:04;90981.72;;;33.93;29.07